createdAt,value
2019-05-20T00:01:12.329Z,25.97
2019-05-20T00:03:39.791Z,24.03
2019-05-20T00:06:08.057Z,24.70
2019-05-20T00:08:35.776Z,24.97
2019-05-20T00:11:03.685Z,25.13
2019-05-20T00:13:31.189Z,24.73
2019-05-20T00:15:59.003Z,26.10
2019-05-20T00:18:26.640Z,23.77
2019-05-20T00:20:54.077Z,21.70
2019-05-20T00:23:26.013Z,25.30
2019-05-20T00:25:54.258Z,27.70
2019-05-20T00:28:22.376Z,25.33
2019-05-20T00:30:49.910Z,29.60
2019-05-20T00:33:20.854Z,27.00
2019-05-20T00:35:48.291Z,27.50
2019-05-20T00:38:16.096Z,26.43
2019-05-20T00:40:43.646Z,28.90
2019-05-20T00:43:16.793Z,24.77
2019-05-20T00:45:44.454Z,28.07
2019-05-20T00:48:13.789Z,27.33
2019-05-20T00:50:41.164Z,29.43
2019-05-20T00:53:08.745Z,32.23
2019-05-20T00:55:37.137Z,30.23
2019-05-20T00:58:05.176Z,31.33
2019-05-20T01:00:32.960Z,29.33
2019-05-20T01:03:00.816Z,28.53
2019-05-20T01:05:28.252Z,27.53
2019-05-20T01:07:56.074Z,26.87
2019-05-20T01:10:23.546Z,29.23
2019-05-20T01:12:51.551Z,27.77
2019-05-20T01:15:18.850Z,29.17
2019-05-20T01:17:46.239Z,27.83
2019-05-20T01:20:19.432Z,30.10
2019-05-20T01:22:51.376Z,29.73
2019-05-20T01:25:20.505Z,32.93
2019-05-20T01:27:48.048Z,31.03
2019-05-20T01:30:15.731Z,30.47
2019-05-20T01:32:44.332Z,27.50
2019-05-20T01:35:18.305Z,28.13
2019-05-20T01:37:45.697Z,27.13
2019-05-20T01:40:14.287Z,30.23
2019-05-20T01:42:42.013Z,33.47
2019-05-20T01:45:09.821Z,27.77
2019-05-20T01:47:37.834Z,28.80
2019-05-20T01:50:10.848Z,28.67
2019-05-20T01:52:40.941Z,30.73
2019-05-20T01:55:08.897Z,28.10
2019-05-20T01:57:39.607Z,31.07
2019-05-20T02:00:07.287Z,30.47
2019-05-20T02:02:34.826Z,29.33
2019-05-20T02:05:03.384Z,31.20
2019-05-20T02:07:31.860Z,29.80
2019-05-20T02:10:00.351Z,32.97
2019-05-20T02:12:28.301Z,28.97
2019-05-20T02:15:08.102Z,30.17
2019-05-20T02:17:36.135Z,33.47
2019-05-20T02:20:10.488Z,31.60
2019-05-20T02:22:50.234Z,30.73
2019-05-20T02:25:17.913Z,31.53
2019-05-20T02:27:52.448Z,34.10
2019-05-20T02:30:19.906Z,32.63
2019-05-20T02:32:47.849Z,31.40
2019-05-20T02:35:15.502Z,34.93
2019-05-20T02:37:49.214Z,30.53
2019-05-20T02:40:16.724Z,32.07
2019-05-20T02:42:44.041Z,30.93
2019-05-20T02:45:14.091Z,31.13
2019-05-20T02:47:44.641Z,30.97
2019-05-20T02:50:13.398Z,31.30
2019-05-20T02:52:41.046Z,32.47
2019-05-20T02:55:08.710Z,31.70
2019-05-20T02:57:36.602Z,32.50
2019-05-20T03:00:04.675Z,30.43
2019-05-20T03:02:32.201Z,35.83
2019-05-20T03:05:00.826Z,35.53
2019-05-20T03:07:29.033Z,36.17
2019-05-20T03:09:56.852Z,33.43
2019-05-20T03:12:25.536Z,33.60
2019-05-20T03:14:53.784Z,34.17
2019-05-20T03:17:21.352Z,33.97
2019-05-20T03:19:49.749Z,35.83
2019-05-20T03:22:17.280Z,35.97
2019-05-20T03:24:45.049Z,35.27
2019-05-20T03:27:13.297Z,36.50
2019-05-20T03:29:41.036Z,32.27
2019-05-20T03:32:11.103Z,36.33
2019-05-20T03:34:48.649Z,34.23
2019-05-20T03:37:11.144Z,34.23
2019-05-20T03:39:38.673Z,35.37
2019-05-20T03:42:06.107Z,33.87
2019-05-20T03:44:33.584Z,32.67
2019-05-20T03:47:04.022Z,34.40
2019-05-20T03:49:33.514Z,37.10
2019-05-20T03:52:00.927Z,31.83
2019-05-20T03:54:29.667Z,32.50
2019-05-20T03:57:00.643Z,36.27
2019-05-20T03:59:28.141Z,37.83
2019-05-20T04:01:56.636Z,39.13
2019-05-20T04:04:25.143Z,39.43
2019-05-20T04:06:56.089Z,37.90
2019-05-20T04:09:23.588Z,40.33
2019-05-20T04:11:51.419Z,36.33
2019-05-20T04:14:22.068Z,40.80
2019-05-20T04:16:51.080Z,42.33
2019-05-20T04:19:18.435Z,44.20
2019-05-20T04:21:45.907Z,41.97
2019-05-20T04:24:13.380Z,37.27
2019-05-20T04:26:41.323Z,39.00
2019-05-20T04:29:08.640Z,40.13
2019-05-20T04:31:36.457Z,41.70
2019-05-20T04:34:06.640Z,39.97
2019-05-20T04:36:40.432Z,42.93
2019-05-20T04:39:08.158Z,39.73
2019-05-20T04:41:36.242Z,42.97
2019-05-20T04:44:04.061Z,41.87
2019-05-20T04:46:31.578Z,45.57
2019-05-20T04:48:59.069Z,40.97
2019-05-20T04:51:29.892Z,44.23
2019-05-20T04:53:57.465Z,45.07
2019-05-20T04:56:28.381Z,41.83
2019-05-20T04:58:57.027Z,37.07
2019-05-20T05:01:33.264Z,43.03
2019-05-20T05:04:09.508Z,44.63
2019-05-20T05:06:38.273Z,39.10
2019-05-20T05:09:11.470Z,40.20
2019-05-20T05:11:39.384Z,39.50
2019-05-20T05:14:07.122Z,40.17
2019-05-20T05:16:35.254Z,39.47
2019-05-20T05:19:07.002Z,43.80
2019-05-20T05:21:41.284Z,39.90
2019-05-20T05:24:09.636Z,43.37
2019-05-20T05:26:47.785Z,41.57
2019-05-20T05:29:17.622Z,43.00
2019-05-20T05:31:48.805Z,44.60
2019-05-20T05:34:18.650Z,41.87
2019-05-20T05:36:46.853Z,43.97
2019-05-20T05:39:14.177Z,36.83
2019-05-20T05:41:43.814Z,41.27
2019-05-20T05:44:11.490Z,42.93
2019-05-20T05:46:41.208Z,41.23
2019-05-20T05:49:09.663Z,40.40
2019-05-20T05:51:39.889Z,42.53
2019-05-20T05:54:13.393Z,40.00
2019-05-20T05:56:46.774Z,42.57
2019-05-20T05:59:15.731Z,42.33
2019-05-20T06:01:45.753Z,37.83
2019-05-20T06:04:13.222Z,40.43
2019-05-20T06:06:46.575Z,36.83
2019-05-20T06:09:14.209Z,36.53
2019-05-20T06:11:41.700Z,38.83
2019-05-20T06:14:10.910Z,36.90
2019-05-20T06:16:38.446Z,39.43
2019-05-20T06:19:12.648Z,35.03
2019-05-20T06:21:40.966Z,36.13
2019-05-20T06:24:09.815Z,36.37
2019-05-20T06:26:38.456Z,34.37
2019-05-20T06:29:06.182Z,39.63
2019-05-20T06:31:34.357Z,36.23
2019-05-20T06:34:02.275Z,40.03
2019-05-20T06:36:29.794Z,34.83
2019-05-20T06:39:12.886Z,33.07
2019-05-20T06:41:46.640Z,36.27
2019-05-20T06:44:20.680Z,36.87
2019-05-20T06:46:48.468Z,36.13
2019-05-20T06:49:19.516Z,32.40
2019-05-20T06:51:47.513Z,30.07
2019-05-20T06:54:16.098Z,29.27
2019-05-20T06:56:48.765Z,27.90
2019-05-20T06:59:16.959Z,29.73
2019-05-20T07:01:45.115Z,28.07
2019-05-20T07:04:12.858Z,29.47
2019-05-20T07:06:46.441Z,31.47
2019-05-20T07:09:09.702Z,31.03
2019-05-20T07:11:38.890Z,28.40
2019-05-20T07:14:06.530Z,28.33
2019-05-20T07:16:34.180Z,25.60
2019-05-20T07:19:01.977Z,25.33
2019-05-20T07:21:32.093Z,26.80
2019-05-20T07:23:59.815Z,28.20
2019-05-20T07:26:27.934Z,30.90
2019-05-20T07:28:55.396Z,26.07
2019-05-20T07:31:24.875Z,27.23
2019-05-20T07:33:52.371Z,29.63
2019-05-20T07:36:20.164Z,27.93
2019-05-20T07:38:50.497Z,27.87
2019-05-20T07:41:18.980Z,26.53
2019-05-20T07:43:47.104Z,26.63
2019-05-20T07:46:14.609Z,24.60
2019-05-20T07:48:42.317Z,28.07
2019-05-20T07:51:10.605Z,26.33
2019-05-20T07:53:38.267Z,26.97
2019-05-20T07:56:11.104Z,26.87
2019-05-20T07:58:39.427Z,24.10
2019-05-20T08:01:06.855Z,25.83
2019-05-20T08:03:38.433Z,27.80
2019-05-20T08:06:04.337Z,21.73
2019-05-20T08:08:32.029Z,25.17
2019-05-20T08:11:05.651Z,23.83
2019-05-20T08:13:33.824Z,25.20
2019-05-20T08:16:04.670Z,24.70
2019-05-20T08:18:32.566Z,21.67
2019-05-20T08:21:00.288Z,22.23
2019-05-20T08:23:28.807Z,25.87
2019-05-20T08:25:56.363Z,27.17
2019-05-20T08:28:24.566Z,27.03
2019-05-20T08:30:53.115Z,23.90
2019-05-20T08:33:20.887Z,31.40
2019-05-20T08:35:48.388Z,27.20
2019-05-20T08:38:16.016Z,26.20
2019-05-20T08:40:43.583Z,28.97
2019-05-20T08:43:11.184Z,25.60
2019-05-20T08:45:38.661Z,25.90
2019-05-20T08:48:08.882Z,26.03
2019-05-20T08:50:36.269Z,27.87
2019-05-20T08:53:03.754Z,29.07
2019-05-20T08:55:31.435Z,27.13
2019-05-20T08:57:58.997Z,27.53
2019-05-20T09:00:36.406Z,30.93
2019-05-20T09:03:04.033Z,27.23
2019-05-20T09:05:34.348Z,29.33
2019-05-20T09:08:03.722Z,28.67
2019-05-20T09:10:39.317Z,27.53
2019-05-20T09:13:05.437Z,28.27
2019-05-20T09:15:33.482Z,25.97
2019-05-20T09:18:06.219Z,25.93
2019-05-20T09:20:38.902Z,26.67
2019-05-20T09:23:06.385Z,31.53
2019-05-20T09:25:38.332Z,27.03
2019-05-20T09:28:12.023Z,31.13
2019-05-20T09:30:41.709Z,29.47
2019-05-20T09:33:09.264Z,30.50
2019-05-20T09:35:36.958Z,32.37
2019-05-20T09:38:17.624Z,33.57
2019-05-20T09:40:36.121Z,34.83
2019-05-20T09:43:03.601Z,34.53
2019-05-20T09:45:31.169Z,33.23
2019-05-20T09:48:05.444Z,29.80
2019-05-20T09:50:34.739Z,32.10
2019-05-20T09:53:18.987Z,29.23
2019-05-20T09:55:46.786Z,29.47
2019-05-20T09:58:17.275Z,26.80
2019-05-20T10:00:46.657Z,24.60
2019-05-20T10:03:25.489Z,24.07
2019-05-20T10:05:59.899Z,23.70
2019-05-20T10:08:39.022Z,24.50
2019-05-20T10:11:02.287Z,20.93
2019-05-20T10:13:29.886Z,20.67
2019-05-20T10:15:58.914Z,20.57
2019-05-20T10:18:36.934Z,22.13
2019-05-20T10:21:10.024Z,20.70
2019-05-20T10:23:44.564Z,22.27
2019-05-20T10:26:13.763Z,23.53
2019-05-20T10:28:46.813Z,22.13
2019-05-20T10:31:13.501Z,21.87
2019-05-20T10:33:41.214Z,19.47
2019-05-20T10:36:08.870Z,24.07
2019-05-20T10:38:54.819Z,23.57
2019-05-20T10:41:07.782Z,24.07
2019-05-20T10:43:37.222Z,22.37
2019-05-20T10:46:05.499Z,23.47
2019-05-20T10:48:40.585Z,23.27
2019-05-20T10:51:11.237Z,23.33
2019-05-20T10:53:40.861Z,23.77
2019-05-20T10:56:08.638Z,25.13
2019-05-20T10:58:37.513Z,23.50
2019-05-20T11:01:05.265Z,25.30
2019-05-20T11:03:33.256Z,24.93
2019-05-20T11:06:14.401Z,24.73
2019-05-20T11:08:42.404Z,24.70
2019-05-20T11:11:17.756Z,28.97
2019-05-20T11:13:47.477Z,26.43
2019-05-20T11:16:23.616Z,32.43
2019-05-20T11:18:53.765Z,24.70
2019-05-20T11:21:21.429Z,25.23
2019-05-20T11:23:50.268Z,27.27
2019-05-20T11:26:18.667Z,23.57
2019-05-20T11:28:46.125Z,25.23
2019-05-20T11:31:14.958Z,22.73
2019-05-20T11:33:52.423Z,23.20
2019-05-20T11:36:20.117Z,23.73
2019-05-20T11:38:47.606Z,22.80
2019-05-20T11:41:16.163Z,21.60
2019-05-20T11:43:43.631Z,22.80
2019-05-20T11:46:11.313Z,23.00
2019-05-20T11:48:38.715Z,22.63
2019-05-20T11:51:06.364Z,22.37
2019-05-20T11:53:52.036Z,24.83
2019-05-20T11:56:23.170Z,22.20
2019-05-20T11:58:50.898Z,20.07
2019-05-20T12:01:19.119Z,23.57
2019-05-20T12:03:46.721Z,21.17
2019-05-20T12:06:14.373Z,20.83
2019-05-20T12:08:42.730Z,21.70
2019-05-20T12:11:11.438Z,21.10
2019-05-20T12:13:44.439Z,22.30
2019-05-20T12:16:15.046Z,22.93
2019-05-20T12:18:45.288Z,24.17
2019-05-20T12:21:14.918Z,25.83
2019-05-20T12:23:48.317Z,21.43
2019-05-20T12:26:22.314Z,22.77
2019-05-20T12:28:49.377Z,23.80
2019-05-20T12:31:17.776Z,25.07
2019-05-20T12:33:49.587Z,22.67
2019-05-20T12:36:26.591Z,25.87
2019-05-20T12:39:05.136Z,23.13
2019-05-20T12:41:32.680Z,26.57
2019-05-20T12:44:11.611Z,23.47
2019-05-20T12:46:32.254Z,23.83
2019-05-20T12:48:59.957Z,22.73
2019-05-20T12:51:29.647Z,23.63
2019-05-20T12:53:58.163Z,21.03
2019-05-20T12:56:26.149Z,23.57
2019-05-20T12:58:54.529Z,21.40
2019-05-20T13:01:23.159Z,20.70
2019-05-20T13:03:51.521Z,21.60
2019-05-20T13:06:19.850Z,20.70
2019-05-20T13:08:47.526Z,22.27
2019-05-20T13:11:14.924Z,23.13
2019-05-20T13:13:43.034Z,24.47
2019-05-20T13:16:10.556Z,25.00
2019-05-20T13:18:38.017Z,24.37
2019-05-20T13:21:05.491Z,23.10
2019-05-20T13:23:33.583Z,24.20
2019-05-20T13:26:01.651Z,25.80
2019-05-20T13:28:30.285Z,24.97
2019-05-20T13:31:05.148Z,27.47
2019-05-20T13:33:33.440Z,23.73
2019-05-20T13:36:02.252Z,24.70
2019-05-20T13:38:35.463Z,25.90
2019-05-20T13:41:06.569Z,23.90
2019-05-20T13:43:36.900Z,26.37
2019-05-20T13:46:04.549Z,26.00
2019-05-20T13:48:35.255Z,24.83
2019-05-20T13:51:03.204Z,26.23
2019-05-20T13:53:31.192Z,30.03
2019-05-20T13:55:59.295Z,26.67
2019-05-20T13:58:45.278Z,27.73
2019-05-20T14:01:19.088Z,27.57
2019-05-20T14:03:47.968Z,26.07
2019-05-20T14:06:17.412Z,28.47
2019-05-20T14:08:57.069Z,26.00
2019-05-20T14:11:34.759Z,25.03
2019-05-20T14:14:58.408Z,25.33
2019-05-20T14:17:18.621Z,25.67
2019-05-20T14:19:46.469Z,28.40
2019-05-20T14:22:14.130Z,24.47
2019-05-20T14:24:56.966Z,24.10
2019-05-20T14:27:25.365Z,27.27
2019-05-20T14:30:05.353Z,28.40
2019-05-20T14:32:34.521Z,29.80
2019-05-20T14:35:02.691Z,28.10
2019-05-20T14:37:31.985Z,24.00
2019-05-20T14:40:00.595Z,25.43
2019-05-20T14:42:33.173Z,25.57
2019-05-20T14:45:01.446Z,28.60
2019-05-20T14:47:28.986Z,25.10
2019-05-20T14:50:03.493Z,28.37
2019-05-20T14:52:33.113Z,25.07
2019-05-20T14:55:03.241Z,25.73
2019-05-20T14:57:31.053Z,24.90
2019-05-20T14:59:59.818Z,27.40
2019-05-20T15:02:31.245Z,25.80
2019-05-20T15:04:59.465Z,24.80
2019-05-20T15:07:30.931Z,22.03
2019-05-20T15:09:59.088Z,21.23
2019-05-20T15:12:29.156Z,26.37
2019-05-20T15:14:56.800Z,20.80
2019-05-20T15:17:36.906Z,21.47
2019-05-20T15:20:05.181Z,21.33
2019-05-20T15:22:33.168Z,24.07
2019-05-20T15:25:01.193Z,20.57
2019-05-20T15:27:30.857Z,21.70
2019-05-20T15:30:04.202Z,22.83
2019-05-20T15:32:36.797Z,20.37
2019-05-20T15:35:04.633Z,20.30
2019-05-20T15:37:35.587Z,24.60
2019-05-20T15:40:09.839Z,22.80
2019-05-20T15:42:40.561Z,23.33
2019-05-20T15:45:11.328Z,22.90
2019-05-20T15:47:39.923Z,22.73
2019-05-20T15:50:10.188Z,27.73
2019-05-20T15:52:40.160Z,24.70
2019-05-20T15:55:11.616Z,28.97
2019-05-20T15:57:39.768Z,30.50
2019-05-20T16:00:09.610Z,30.83
2019-05-20T16:02:42.740Z,34.73
2019-05-20T16:05:11.954Z,34.57
2019-05-20T16:07:39.702Z,33.10
2019-05-20T16:10:23.959Z,35.73
2019-05-20T16:13:53.580Z,32.00
2019-05-20T16:17:47.879Z,33.00
2019-05-20T16:24:09.091Z,28.13
2019-05-20T16:26:57.225Z,27.40
2019-05-20T16:29:36.962Z,29.47
2019-05-20T16:32:15.869Z,26.77
2019-05-20T16:34:46.799Z,32.00
2019-05-20T16:37:26.102Z,28.20
2019-05-20T16:40:07.792Z,29.40
2019-05-20T16:42:36.490Z,26.80
2019-05-20T16:45:06.258Z,27.77
2019-05-20T16:47:37.979Z,25.40
2019-05-20T16:50:13.594Z,25.63
2019-05-20T16:52:52.501Z,26.03
2019-05-20T16:55:22.825Z,23.87
2019-05-20T16:57:54.513Z,25.87
2019-05-20T17:00:31.224Z,23.43
2019-05-20T17:02:59.059Z,23.73
2019-05-20T17:05:39.824Z,24.10
2019-05-20T17:08:44.367Z,22.80
2019-05-20T17:11:19.786Z,25.87
2019-05-20T17:13:51.291Z,22.70
2019-05-20T17:16:20.154Z,21.37
2019-05-20T17:18:55.870Z,20.53
2019-05-20T17:22:33.363Z,22.63
2019-05-20T17:25:08.995Z,22.43
2019-05-20T17:27:52.423Z,22.63
2019-05-20T17:30:25.823Z,21.37
2019-05-20T17:32:59.328Z,23.43
2019-05-20T17:36:36.154Z,25.20
2019-05-20T17:39:07.054Z,21.33
2019-05-20T17:41:45.960Z,24.50
2019-05-20T17:44:14.438Z,26.80
2019-05-20T17:46:47.175Z,27.27
2019-05-20T17:49:19.740Z,27.20
2019-05-20T17:51:51.350Z,25.77
2019-05-20T17:54:28.219Z,24.77
2019-05-20T17:57:04.067Z,28.53
2019-05-20T17:59:35.916Z,28.37
2019-05-20T18:02:16.860Z,26.17
2019-05-20T18:04:51.254Z,24.67
2019-05-20T18:07:23.049Z,27.77
2019-05-20T18:09:55.582Z,28.67
2019-05-20T18:12:28.636Z,25.53
2019-05-20T18:15:04.933Z,29.37
2019-05-20T18:17:36.287Z,27.70
2019-05-20T18:20:07.106Z,26.53
2019-05-20T18:22:43.457Z,24.23
2019-05-20T18:25:14.864Z,27.27
2019-05-20T18:27:45.886Z,30.97
2019-05-20T18:30:22.192Z,23.23
2019-05-20T18:33:45.912Z,25.23
2019-05-20T18:36:18.450Z,24.30
2019-05-20T18:38:50.097Z,25.30
2019-05-20T18:41:21.910Z,22.60
2019-05-20T18:43:52.381Z,25.00
2019-05-20T18:47:25.164Z,19.93
2019-05-20T18:49:56.427Z,21.27
2019-05-20T18:52:28.260Z,19.23
2019-05-20T18:54:58.019Z,22.37
2019-05-20T18:57:27.608Z,22.93
2019-05-20T18:59:59.111Z,20.57
2019-05-20T19:02:29.851Z,19.90
2019-05-20T19:05:02.768Z,21.03
2019-05-20T19:07:33.285Z,18.90
2019-05-20T19:10:21.698Z,18.80
2019-05-20T19:12:52.329Z,18.73
2019-05-20T19:16:15.043Z,20.00
2019-05-20T19:18:46.584Z,18.03
2019-05-20T19:21:18.556Z,15.83
2019-05-20T19:23:52.541Z,19.33
2019-05-20T19:26:31.370Z,17.87
2019-05-20T19:29:52.566Z,17.87
2019-05-20T19:32:24.341Z,19.27
2019-05-20T19:34:57.704Z,18.03
2019-05-20T19:37:28.801Z,17.90
2019-05-20T19:40:01.225Z,21.03
2019-05-20T19:42:37.670Z,22.37
2019-05-20T19:45:13.717Z,19.10
2019-05-20T19:48:04.196Z,18.07
2019-05-20T19:50:34.665Z,21.90
2019-05-20T19:53:11.712Z,18.73
2019-05-20T19:55:46.754Z,19.80
2019-05-20T19:58:56.973Z,18.87
2019-05-20T20:01:31.972Z,18.60
2019-05-20T20:04:07.620Z,23.97
2019-05-20T20:06:39.988Z,21.03
2019-05-20T20:09:13.296Z,19.57
2019-05-20T20:12:02.278Z,23.23
2019-05-20T20:14:36.249Z,20.00
2019-05-20T20:17:18.534Z,19.73
2019-05-20T20:20:28.437Z,19.57
2019-05-20T20:23:46.068Z,20.17
2019-05-20T20:26:26.921Z,24.23
2019-05-20T20:29:00.228Z,18.07
2019-05-20T20:31:29.988Z,19.87
2019-05-20T20:34:37.800Z,19.03
2019-05-20T20:37:07.387Z,21.33
2019-05-20T20:39:37.962Z,21.90
2019-05-20T20:42:13.081Z,22.70
2019-05-20T20:44:43.170Z,20.83
2019-05-20T20:47:13.179Z,22.43
2019-05-20T20:49:52.134Z,20.30
2019-05-20T20:52:44.626Z,25.37
2019-05-20T20:55:20.729Z,20.17
2019-05-20T20:57:58.212Z,22.13
2019-05-20T21:00:27.120Z,22.23
2019-05-20T21:03:10.485Z,23.47
2019-05-20T21:05:49.931Z,25.03
2019-05-20T21:08:18.350Z,22.87
2019-05-20T21:10:50.511Z,23.83
2019-05-20T21:13:27.278Z,26.60
2019-05-20T21:15:58.688Z,24.10
2019-05-20T21:18:41.104Z,23.97
2019-05-20T21:21:13.783Z,26.00
2019-05-20T21:23:42.006Z,23.87
2019-05-20T21:26:10.823Z,23.13
2019-05-20T21:28:40.809Z,22.83
2019-05-20T21:31:57.799Z,20.53
2019-05-20T21:34:30.816Z,22.00
2019-05-20T21:37:27.182Z,21.27
2019-05-20T21:39:55.891Z,22.00
2019-05-20T21:42:37.621Z,20.60
2019-05-20T21:46:00.895Z,22.07
2019-05-20T21:48:35.116Z,23.73
2019-05-20T21:51:24.020Z,24.63
2019-05-20T21:53:56.624Z,23.90
2019-05-20T21:56:25.727Z,21.17
2019-05-20T21:58:58.356Z,20.20
2019-05-20T22:01:28.797Z,19.30
2019-05-20T22:04:03.143Z,21.50
2019-05-20T22:06:31.615Z,21.13
2019-05-20T22:09:06.132Z,23.23
2019-05-20T22:11:43.524Z,22.87
2019-05-20T22:14:42.028Z,22.87
2019-05-20T22:17:10.263Z,19.77
2019-05-20T22:19:42.554Z,18.43
2019-05-20T22:22:27.928Z,21.17
2019-05-20T22:25:56.518Z,23.93
2019-05-20T22:29:17.554Z,23.77
2019-05-20T22:31:49.031Z,20.57
2019-05-20T22:34:28.061Z,23.83
2019-05-20T22:37:02.632Z,22.70
2019-05-20T22:39:38.593Z,21.77
2019-05-20T22:42:09.684Z,22.17
2019-05-20T22:44:39.963Z,28.20
2019-05-20T22:47:10.799Z,23.53
2019-05-20T22:49:40.903Z,23.10
2019-05-20T22:52:11.428Z,25.57
2019-05-20T22:54:45.893Z,21.53
2019-05-20T22:57:15.418Z,22.07
2019-05-20T22:59:45.696Z,24.43
2019-05-20T23:02:16.313Z,22.60
2019-05-20T23:05:29.849Z,20.73
2019-05-20T23:08:19.046Z,22.97
2019-05-20T23:10:52.092Z,24.00
2019-05-20T23:13:26.157Z,23.87
2019-05-20T23:16:14.272Z,24.83
2019-05-20T23:18:43.345Z,26.90
2019-05-20T23:21:16.068Z,26.40
2019-05-20T23:23:46.991Z,25.23
2019-05-20T23:26:20.413Z,25.13
2019-05-20T23:28:56.893Z,28.43
2019-05-20T23:31:29.293Z,26.37
2019-05-20T23:34:12.150Z,21.03
2019-05-20T23:36:30.337Z,25.87
2019-05-20T23:38:59.090Z,29.97
2019-05-20T23:41:51.492Z,28.63
2019-05-20T23:44:28.359Z,24.00
2019-05-20T23:47:02.675Z,27.17
2019-05-20T23:49:32.001Z,26.87
2019-05-20T23:52:01.758Z,29.87
2019-05-20T23:54:36.313Z,27.93
2019-05-20T23:57:08.396Z,24.80
2019-05-20T23:59:46.236Z,26.60
